Airport View

Enter AWOS ICAO identifier for current METAR.

ex. KFNL

KMBS 191753Z 04008KT 10SM BKN090 21/17 A2979 RMK AO2 SLP086 T02110172 10222 20183 58002

19 Jun 2019 18:47

Phone: 989-695-2488

Other Area AWOS: KIKW - KHYX - KCFS - KMOP

TAF KMBS 191722Z 1918/2018 05006KT 6SM -SHRA BR BKN050 OVC080 FM192000 06010KT P6SM BKN025 OVC040 FM200500 06007KT 3SM -RA BR OVC007 FM201400 03010KT 3SM -RA BR OVC007